createdAt,value
2023-05-19T00:02:45.706Z,101033.06
2023-05-19T00:06:01.423Z,101041.09
2023-05-19T00:09:17.421Z,101038.72
2023-05-19T00:12:26.422Z,101044.13
2023-05-19T00:15:35.557Z,101053.53
2023-05-19T00:18:50.471Z,101053.84
2023-05-19T00:21:59.400Z,101054.69
2023-05-19T00:25:14.429Z,101054.16
2023-05-19T00:28:22.444Z,101045.56
2023-05-19T00:31:31.036Z,101034.84
2023-05-19T00:34:46.393Z,101040.25
2023-05-19T00:37:54.921Z,101035.19
2023-05-19T00:41:11.384Z,101016.19
2023-05-19T00:44:26.428Z,101023.66
2023-05-19T00:47:41.456Z,101021.00
2023-05-19T00:50:44.590Z,101026.97
2023-05-19T00:53:59.417Z,101022.12
2023-05-19T00:57:08.419Z,101014.34
2023-05-19T01:00:17.198Z,101018.12
2023-05-19T01:03:25.546Z,101016.25
2023-05-19T01:06:34.720Z,101020.56
2023-05-19T01:09:49.467Z,101012.50
2023-05-19T01:12:58.030Z,101017.06
2023-05-19T01:16:17.482Z,101030.22
2023-05-19T01:20:20.420Z,101033.19
2023-05-19T01:23:46.421Z,101019.78
2023-05-19T01:27:27.407Z,101036.69
2023-05-19T01:30:35.957Z,101021.72
2023-05-19T01:33:46.395Z,101028.62
2023-05-19T01:37:09.411Z,101027.00
2023-05-19T01:40:26.409Z,101021.38
2023-05-19T01:43:42.426Z,101015.75
2023-05-19T01:46:44.927Z,101015.22
2023-05-19T01:49:59.428Z,101011.47
2023-05-19T01:53:08.418Z,101022.22
2023-05-19T01:56:24.337Z,101017.09
2023-05-19T02:00:06.417Z,101021.94
2023-05-19T02:03:14.911Z,101018.72
2023-05-19T02:06:47.438Z,101029.19
2023-05-19T02:10:21.428Z,101020.09
2023-05-19T02:13:33.828Z,101035.69
2023-05-19T02:16:54.469Z,101030.31
2023-05-19T02:20:11.409Z,101027.13
2023-05-19T02:23:26.426Z,101020.69
2023-05-19T02:26:28.323Z,101024.47
2023-05-19T02:29:43.412Z,101025.56
2023-05-19T02:33:05.450Z,101029.81
2023-05-19T02:36:20.430Z,101025.03
2023-05-19T02:39:29.016Z,101016.41
2023-05-19T02:42:43.426Z,101020.72
2023-05-19T02:45:58.454Z,101015.34
2023-05-19T02:49:07.443Z,101016.97
2023-05-19T02:52:16.068Z,101018.03
2023-05-19T02:55:31.419Z,101012.66
2023-05-19T02:58:39.984Z,101014.81
2023-05-19T03:01:48.483Z,101008.66
2023-05-19T03:05:03.433Z,101010.25
2023-05-19T03:08:12.003Z,101012.66
2023-05-19T03:11:26.451Z,101017.75
2023-05-19T03:14:35.288Z,101023.63
2023-05-19T03:17:50.541Z,101014.00
2023-05-19T03:20:58.942Z,101035.50
2023-05-19T03:24:10.432Z,101035.78
2023-05-19T03:27:18.916Z,101041.97
2023-05-19T03:30:27.413Z,101034.69
2023-05-19T03:33:42.788Z,101034.97
2023-05-19T03:36:57.423Z,101041.91
2023-05-19T03:40:06.414Z,101047.28
2023-05-19T03:43:15.176Z,101040.31
2023-05-19T03:46:30.462Z,101018.00
2023-05-19T03:49:38.426Z,101025.47
2023-05-19T03:52:46.926Z,101028.16
2023-05-19T03:56:01.448Z,101035.66
2023-05-19T03:59:03.297Z,101027.59
2023-05-19T04:02:18.455Z,101025.94
2023-05-19T04:05:26.980Z,101025.41
2023-05-19T04:08:41.428Z,101031.75
2023-05-19T04:11:43.456Z,101037.09
2023-05-19T04:14:58.446Z,101031.19
2023-05-19T04:18:07.049Z,101044.31
2023-05-19T04:21:21.433Z,101038.69
2023-05-19T04:24:23.314Z,101055.25
2023-05-19T04:27:38.432Z,101052.31
2023-05-19T04:30:40.841Z,101049.03
2023-05-19T04:33:55.467Z,101050.87
2023-05-19T04:37:14.836Z,101053.00
2023-05-19T04:40:29.430Z,101056.50
2023-05-19T04:43:45.480Z,101062.62
2023-05-19T04:46:47.394Z,101062.06
2023-05-19T04:50:02.456Z,101069.00
2023-05-19T04:53:04.661Z,101065.25
2023-05-19T04:56:19.424Z,101069.72
2023-05-19T04:59:28.445Z,101069.72
2023-05-19T05:02:43.544Z,101067.03
2023-05-19T05:05:45.479Z,101060.84
2023-05-19T05:09:00.427Z,101061.53
2023-05-19T05:12:16.417Z,101076.09
2023-05-19T05:15:25.447Z,101070.87
2023-05-19T05:18:43.445Z,101077.72
2023-05-19T05:21:53.417Z,101085.97
2023-05-19T05:25:10.431Z,101088.81
2023-05-19T05:28:25.453Z,101094.97
2023-05-19T05:31:34.481Z,101087.34
2023-05-19T05:34:50.324Z,101078.97
2023-05-19T05:37:58.419Z,101073.81
2023-05-19T05:41:06.951Z,101086.56
2023-05-19T05:44:21.453Z,101083.88
2023-05-19T05:47:23.631Z,101078.72
2023-05-19T05:50:38.474Z,101092.91
2023-05-19T05:53:42.146Z,101085.81
2023-05-19T05:56:58.435Z,101083.38
2023-05-19T06:00:08.072Z,101091.75
2023-05-19T06:03:16.537Z,101092.19
2023-05-19T06:06:32.495Z,101093.50
2023-05-19T06:09:34.770Z,101095.63
2023-05-19T06:12:49.434Z,101091.66
2023-05-19T06:15:51.836Z,101099.22
2023-05-19T06:19:06.475Z,101104.47
2023-05-19T06:22:08.385Z,101110.06
2023-05-19T06:25:24.526Z,101112.69
2023-05-19T06:28:33.793Z,101104.84
2023-05-19T06:31:50.849Z,101110.09
2023-05-19T06:35:05.444Z,101119.75
2023-05-19T06:38:20.425Z,101122.13
2023-05-19T06:41:28.957Z,101125.63
2023-05-19T06:44:43.454Z,101125.66
2023-05-19T06:47:52.136Z,101132.47
2023-05-19T06:51:00.440Z,101137.78
2023-05-19T06:54:08.949Z,101136.78
2023-05-19T06:57:17.433Z,101144.50
2023-05-19T07:00:26.022Z,101142.97
2023-05-19T07:03:34.612Z,101138.31
2023-05-19T07:06:49.476Z,101136.09
2023-05-19T07:09:51.356Z,101137.34
2023-05-19T07:13:06.442Z,101132.81
2023-05-19T07:16:15.067Z,101132.34
2023-05-19T07:19:23.548Z,101129.25
2023-05-19T07:22:39.502Z,101132.53
2023-05-19T07:25:47.447Z,101116.19
2023-05-19T07:28:56.111Z,101105.56
2023-05-19T07:32:12.639Z,101104.37
2023-05-19T07:35:21.443Z,101110.34
2023-05-19T07:38:37.459Z,101101.03
2023-05-19T07:41:45.466Z,101093.69
2023-05-19T07:45:00.465Z,101099.13
2023-05-19T07:48:09.130Z,101108.56
2023-05-19T07:51:19.553Z,101108.88
2023-05-19T07:54:27.993Z,101113.19
2023-05-19T07:57:42.453Z,101108.06
2023-05-19T08:00:50.939Z,101108.53
2023-05-19T08:04:05.613Z,101114.78
2023-05-19T08:07:07.574Z,101099.59
2023-05-19T08:10:22.607Z,101111.41
2023-05-19T08:13:31.319Z,101100.38
2023-05-19T08:16:39.535Z,101099.72
2023-05-19T08:19:48.108Z,101098.69
2023-05-19T08:22:56.459Z,101095.97
2023-05-19T08:26:05.397Z,101093.63
2023-05-19T08:29:21.704Z,101087.59
2023-05-19T08:32:36.542Z,101093.88
2023-05-19T08:35:44.762Z,101079.25
2023-05-19T08:39:00.527Z,101082.97
2023-05-19T08:42:02.670Z,101090.87
2023-05-19T08:45:17.595Z,101081.72
2023-05-19T08:48:26.465Z,101089.38
2023-05-19T08:51:59.460Z,101082.78
2023-05-19T08:55:27.453Z,101072.28
2023-05-19T08:58:43.465Z,101079.25
2023-05-19T09:01:54.155Z,101075.28
2023-05-19T09:05:11.565Z,101083.12
2023-05-19T09:08:13.863Z,101083.09
2023-05-19T09:11:28.477Z,101080.13
2023-05-19T09:14:38.129Z,101081.72
2023-05-19T09:17:46.561Z,101079.56
2023-05-19T09:21:00.365Z,101074.06
2023-05-19T09:24:13.480Z,101083.88
2023-05-19T09:27:22.968Z,101075.47
2023-05-19T09:30:31.541Z,101085.53
2023-05-19T09:33:44.361Z,101075.25
2023-05-19T09:37:07.489Z,101074.91
2023-05-19T09:40:11.240Z,101078.28
2023-05-19T09:43:27.475Z,101079.66
2023-05-19T09:46:35.649Z,101070.50
2023-05-19T09:49:54.550Z,101063.94
2023-05-19T09:53:10.485Z,101057.19
2023-05-19T09:56:18.991Z,101063.34
2023-05-19T09:59:37.646Z,101063.53
2023-05-19T10:02:48.271Z,101051.22
2023-05-19T10:05:56.527Z,101049.34
2023-05-19T10:09:05.799Z,101042.72
2023-05-19T10:12:15.477Z,101049.50
2023-05-19T10:15:33.039Z,101047.03
2023-05-19T10:18:40.258Z,101031.91
2023-05-19T10:21:56.493Z,101043.00
2023-05-19T10:25:05.936Z,101036.16
2023-05-19T10:28:23.518Z,101028.19
2023-05-19T10:31:26.483Z,101028.09
2023-05-19T10:35:04.497Z,101029.00
2023-05-19T10:38:16.722Z,101021.22
2023-05-19T10:42:00.486Z,101024.56
2023-05-19T10:45:28.481Z,101021.03
2023-05-19T10:48:34.058Z,101022.94
2023-05-19T10:51:51.497Z,101016.06
2023-05-19T10:54:53.413Z,101005.59
2023-05-19T10:58:08.676Z,101016.44
2023-05-19T11:01:18.672Z,101008.19
2023-05-19T11:04:53.541Z,101004.69
2023-05-19T11:07:57.441Z,101000.78
2023-05-19T11:11:23.668Z,100995.34
2023-05-19T11:14:35.528Z,100990.28
2023-05-19T11:17:55.627Z,100997.62
2023-05-19T11:21:04.137Z,100986.94
2023-05-19T11:24:47.507Z,100994.13
2023-05-19T11:28:03.522Z,100992.81
2023-05-19T11:31:13.494Z,100993.00
2023-05-19T11:34:29.515Z,100985.22
2023-05-19T11:37:52.568Z,100987.19
2023-05-19T11:41:07.533Z,100981.31
2023-05-19T11:44:16.099Z,100982.09
2023-05-19T11:47:24.643Z,100975.09
2023-05-19T11:50:33.177Z,100974.25
2023-05-19T11:53:41.522Z,100979.75
2023-05-19T11:56:50.089Z,100984.88
2023-05-19T12:00:08.706Z,100980.28
2023-05-19T12:03:17.775Z,100979.91
2023-05-19T12:06:26.792Z,100979.00
2023-05-19T12:09:41.529Z,100969.16
2023-05-19T12:13:00.528Z,100960.56
2023-05-19T12:16:10.521Z,100968.84
2023-05-19T12:19:19.118Z,100955.03
2023-05-19T12:22:33.524Z,100952.56
2023-05-19T12:25:42.536Z,100943.13
2023-05-19T12:28:58.503Z,100945.81
2023-05-19T12:32:08.585Z,100941.19
2023-05-19T12:35:23.520Z,100946.97
2023-05-19T12:38:38.537Z,100935.50
2023-05-19T12:41:53.529Z,100924.31
2023-05-19T12:45:12.541Z,100924.31
2023-05-19T12:48:37.599Z,100925.91
2023-05-19T12:51:46.500Z,100924.28
2023-05-19T12:55:05.973Z,100910.12
2023-05-19T12:58:14.542Z,100910.78
2023-05-19T13:01:23.620Z,100914.28
2023-05-19T13:04:32.508Z,100915.31
2023-05-19T13:07:47.526Z,100918.59
2023-05-19T13:10:56.037Z,100908.53
2023-05-19T13:14:04.521Z,100904.75
2023-05-19T13:17:13.158Z,100898.25
2023-05-19T13:20:28.750Z,100906.66
2023-05-19T13:23:43.522Z,100896.34
2023-05-19T13:26:58.603Z,100890.63
2023-05-19T13:30:07.757Z,100894.63
2023-05-19T13:33:16.624Z,100879.97
2023-05-19T13:36:31.817Z,100884.69
2023-05-19T13:39:46.546Z,100868.81
2023-05-19T13:42:55.096Z,100873.69
2023-05-19T13:46:09.584Z,100864.03
2023-05-19T13:49:18.095Z,100864.44
2023-05-19T13:52:33.525Z,100864.84
2023-05-19T13:55:48.554Z,100878.34
2023-05-19T13:59:03.533Z,100871.56
2023-05-19T14:02:18.541Z,100873.34
2023-05-19T14:05:33.618Z,100860.66
2023-05-19T14:08:48.532Z,100858.19
2023-05-19T14:11:50.793Z,100849.22
2023-05-19T14:15:08.987Z,100855.94
2023-05-19T14:18:23.602Z,100850.59
2023-05-19T14:21:38.581Z,100860.84
2023-05-19T14:24:40.565Z,100856.59
2023-05-19T14:27:58.568Z,100858.03
2023-05-19T14:31:14.254Z,100852.06
2023-05-19T14:34:29.564Z,100853.63
2023-05-19T14:37:44.847Z,100841.91
2023-05-19T14:40:53.544Z,100844.66
2023-05-19T14:44:02.065Z,100847.00
2023-05-19T14:47:16.632Z,100852.44
2023-05-19T14:50:26.453Z,100848.13
2023-05-19T14:53:35.565Z,100843.22
2023-05-19T14:56:50.572Z,100852.84
2023-05-19T14:59:59.163Z,100836.78
2023-05-19T15:03:08.671Z,100846.06
2023-05-19T15:06:17.222Z,100839.75
2023-05-19T15:09:25.578Z,100843.34
2023-05-19T15:12:40.565Z,100838.25
2023-05-19T15:15:48.598Z,100830.94
2023-05-19T15:19:03.659Z,100830.41
2023-05-19T15:22:12.636Z,100824.31
2023-05-19T15:25:21.243Z,100833.53
2023-05-19T15:28:29.564Z,100830.59
2023-05-19T15:31:38.607Z,100834.91
2023-05-19T15:34:47.616Z,100837.81
2023-05-19T15:38:09.620Z,100829.44
2023-05-19T15:41:18.078Z,100841.09
2023-05-19T15:44:32.586Z,100828.41
2023-05-19T15:47:40.644Z,100832.28
2023-05-19T15:50:49.158Z,100790.38
2023-05-19T15:53:57.565Z,100830.88
2023-05-19T15:57:06.268Z,100833.59
2023-05-19T16:00:15.572Z,100834.66
2023-05-19T16:03:24.225Z,100830.69
2023-05-19T16:06:39.558Z,100830.59
2023-05-19T16:09:41.407Z,100836.87
2023-05-19T16:12:56.565Z,100831.66
2023-05-19T16:16:11.733Z,100837.84
2023-05-19T16:19:20.639Z,100837.84
2023-05-19T16:22:29.110Z,100834.84
2023-05-19T16:25:37.572Z,100838.56
2023-05-19T16:28:52.615Z,100843.69
2023-05-19T16:31:54.525Z,100847.03
2023-05-19T16:35:09.628Z,100845.78
2023-05-19T16:38:31.572Z,100843.31
2023-05-19T16:41:39.618Z,100846.31
2023-05-19T16:44:54.591Z,100841.34
2023-05-19T16:48:09.700Z,100851.06
2023-05-19T16:51:11.709Z,100837.50
2023-05-19T16:54:26.596Z,100835.72
2023-05-19T16:57:34.580Z,100831.47
2023-05-19T17:00:49.599Z,100840.69
2023-05-19T17:03:58.207Z,100838.09
2023-05-19T17:07:12.606Z,100844.13
2023-05-19T17:10:21.238Z,100839.22
2023-05-19T17:13:36.613Z,100830.41
2023-05-19T17:16:38.538Z,100800.72
2023-05-19T17:19:53.635Z,100829.06
2023-05-19T17:23:08.599Z,100840.91
2023-05-19T17:26:17.173Z,100841.50
2023-05-19T17:29:31.637Z,100843.19
2023-05-19T17:32:46.727Z,100841.41
2023-05-19T17:36:09.603Z,100843.44
2023-05-19T17:39:17.608Z,100842.94
2023-05-19T17:42:26.214Z,100812.25
2023-05-19T17:45:34.619Z,100845.31
2023-05-19T17:48:43.399Z,100859.94
2023-05-19T17:51:52.647Z,100844.56
2023-05-19T17:55:01.430Z,100856.25
2023-05-19T17:58:10.722Z,100859.84
2023-05-19T18:01:19.659Z,100854.84
2023-05-19T18:04:34.637Z,100855.13
2023-05-19T18:07:44.636Z,100855.41
2023-05-19T18:11:02.616Z,100852.16
2023-05-19T18:14:17.618Z,100836.16
2023-05-19T18:17:26.230Z,100857.16
2023-05-19T18:20:34.930Z,100853.13
2023-05-19T18:23:43.742Z,100849.94
2023-05-19T18:26:58.633Z,100854.31
2023-05-19T18:30:14.588Z,100856.59
2023-05-19T18:33:16.433Z,100858.94
2023-05-19T18:36:38.673Z,100862.50
2023-05-19T18:39:40.635Z,100863.50
2023-05-19T18:42:55.594Z,100865.62
2023-05-19T18:46:04.240Z,100875.06
2023-05-19T18:49:18.675Z,100870.41
2023-05-19T18:52:20.658Z,100869.47
2023-05-19T18:55:37.136Z,100869.62
2023-05-19T18:58:47.180Z,100872.50
2023-05-19T19:02:01.631Z,100880.50
2023-05-19T19:05:03.724Z,100870.91
2023-05-19T19:08:18.632Z,100878.88
2023-05-19T19:11:33.617Z,100877.13
2023-05-19T19:14:35.564Z,100880.16
2023-05-19T19:17:50.677Z,100876.63
2023-05-19T19:20:52.841Z,100887.19
2023-05-19T19:24:07.648Z,100889.56
2023-05-19T19:27:16.218Z,100897.03
2023-05-19T19:30:24.651Z,100889.38
2023-05-19T19:33:33.350Z,100894.81
2023-05-19T19:36:48.622Z,100894.63
2023-05-19T19:39:56.909Z,100900.34
2023-05-19T19:43:11.634Z,100905.63
2023-05-19T19:46:13.656Z,100908.50
2023-05-19T19:49:28.646Z,100899.06
2023-05-19T19:52:37.654Z,100908.66
2023-05-19T19:55:45.624Z,100902.59
2023-05-19T19:59:00.627Z,100906.12
2023-05-19T20:02:02.561Z,100911.37
2023-05-19T20:05:17.623Z,100917.75
2023-05-19T20:08:33.667Z,100914.91
2023-05-19T20:11:48.634Z,100918.28
2023-05-19T20:14:57.247Z,100920.66
2023-05-19T20:18:12.746Z,100918.75
2023-05-19T20:21:21.668Z,100917.81
2023-05-19T20:24:36.647Z,100913.47
2023-05-19T20:27:44.636Z,100912.69
2023-05-19T20:30:59.645Z,100913.97
2023-05-19T20:34:01.847Z,100903.12
2023-05-19T20:37:16.631Z,100918.59
2023-05-19T20:40:18.563Z,100910.94
2023-05-19T20:43:33.624Z,100913.31
2023-05-19T20:46:42.204Z,100908.09
2023-05-19T20:49:56.646Z,100906.66
2023-05-19T20:52:58.586Z,100910.47
2023-05-19T20:56:13.634Z,100911.59
2023-05-19T20:59:15.523Z,100912.53
2023-05-19T21:02:30.674Z,100912.84
2023-05-19T21:05:38.635Z,100913.97
2023-05-19T21:08:47.211Z,100912.06
2023-05-19T21:11:55.633Z,100905.50
2023-05-19T21:15:04.448Z,100901.53
2023-05-19T21:18:19.657Z,100905.22
2023-05-19T21:21:21.546Z,100896.44
2023-05-19T21:24:36.638Z,100901.22
2023-05-19T21:27:45.299Z,100902.34
2023-05-19T21:30:54.667Z,100912.06
2023-05-19T21:34:11.638Z,100911.72
2023-05-19T21:37:19.906Z,100909.16
2023-05-19T21:40:34.888Z,100908.53
2023-05-19T21:43:36.953Z,100901.84
2023-05-19T21:46:51.808Z,100898.66
2023-05-19T21:50:00.277Z,100896.09
2023-05-19T21:53:08.683Z,100895.28
2023-05-19T21:56:23.652Z,100890.97
2023-05-19T21:59:25.628Z,100890.00
2023-05-19T22:02:47.782Z,100890.19
2023-05-19T22:06:02.698Z,100893.19
2023-05-19T22:09:17.655Z,100891.13
2023-05-19T22:12:26.160Z,100886.50
2023-05-19T22:15:40.632Z,100884.44
2023-05-19T22:18:49.291Z,100877.09
2023-05-19T22:22:06.011Z,100882.62
2023-05-19T22:25:22.245Z,100880.06
2023-05-19T22:28:30.647Z,100867.97
2023-05-19T22:31:45.660Z,100864.44
2023-05-19T22:34:54.278Z,100870.31
2023-05-19T22:38:16.711Z,100865.38
2023-05-19T22:41:31.646Z,100859.00
2023-05-19T22:44:46.668Z,100860.87
2023-05-19T22:47:55.412Z,100863.56
2023-05-19T22:51:03.682Z,100865.94
2023-05-19T22:54:12.273Z,100853.16
2023-05-19T22:57:26.667Z,100863.38
2023-05-19T23:00:28.611Z,100852.06
2023-05-19T23:03:43.708Z,100845.22
2023-05-19T23:06:52.257Z,100843.59
2023-05-19T23:10:06.673Z,100844.88
2023-05-19T23:13:15.362Z,100841.97
2023-05-19T23:16:23.682Z,100850.72
2023-05-19T23:19:38.683Z,100844.66
2023-05-19T23:22:46.681Z,100843.19
2023-05-19T23:25:55.180Z,100856.25
2023-05-19T23:29:09.636Z,100848.72
2023-05-19T23:32:18.649Z,100845.66
2023-05-19T23:35:40.647Z,100839.59
2023-05-19T23:38:55.659Z,100837.50
2023-05-19T23:42:05.122Z,100831.53
2023-05-19T23:45:13.680Z,100841.91
2023-05-19T23:48:22.191Z,100840.63
2023-05-19T23:51:30.694Z,100840.75
2023-05-19T23:54:45.651Z,100826.44
2023-05-19T23:57:53.680Z,100828.66
